Archival Weather

Snohomish County (Paine Fld)

Everett, Washington (KPAE)

Report from: Thursday, November 16, 2023 1:53 AM PST
Current time: Sunday, June 16, 2024 11:28 PM PDT

Current weather – Weather history – Daily summaries
Weather forecast

Temperature2.8°C (37.0°F)
Wind chill0.7°C (33.3°F)
Dew point0.6°C (33.1°F)
Winds 4 kts (2.1 m/s, 4.6 mph) North (10°)
Visibility10 mi. (16.1 km)
Clouds Sky clear
Altimeter30.06 in.Hg (1018 mB)
Relative humidity85 %
Density altitude-1,561 ft. (-476 m)
Sea-level pressure101.8 kPa (1018 mB, 30.07 in.Hg)
Remarks Fully automated report
Automated weather observing station with precipitation discriminator
Flight conditions Visual Meteorological Conditions
Raw dataKPAE 160953Z AUTO 01004KT 10SM CLR 03/01 A3006 RMK AO2 SLP184 T00280006
An error has occurred. This application may no longer respond until reloaded. Reload 🗙